Hanjin Port Hedland — 3FEM3 — position and weather

sailwx.info

Track history (hours):
 
Tides and Currents Weather Stations Pressure Air Temp Water Temp Dewpoint Dewpoint Depression Visibility Wind Speed Wind Dir Waves Ship Positions

Hanjin Port Hedland

Last reported at 2018-Jun-13 22:42 UTC. Time now 2018-Jun-23 12:23 UTC.
Position N 48°32' W 126°41'.
Warning: this ship's position is 9 days out of date.

Length 292 m; draft 18.1 m.

Type: Cargo ship. MMSI: 372409000.

Date/timePositionNaut miles runAvg speedWind from/ knotsBaromVisibWave heightAir tempDewpointWater temp
2018-Jun-13 22:42N 48°32' W 126°41'2 9.6
2018-Jun-13 22:28N 48°32' W 126°38'4 9.3
2018-Jun-13 22:00N 48°31' W 126°31'5 9.5
2018-Jun-13 21:30N 48°31' W 126°24'5 9.7
2018-Jun-13 21:00N 48°31' W 126°17'5 9.9
2018-Jun-13 20:29N 48°31' W 126°09'510.1
2018-Jun-13 20:00N 48°31' W 126°02'510.0
2018-Jun-13 19:30N 48°31' W 125°54'5 9.9
2018-Jun-13 19:00N 48°31' W 125°47'510.1
2018-Jun-13 18:30N 48°31' W 125°39'510.8
2018-Jun-13 18:00N 48°31' W 125°31'611.2
2018-Jun-13 17:30N 48°31' W 125°23'612.5
2018-Jun-13 17:00N 48°31' W 125°13'612.3
2018-Jun-13 16:30N 48°32' W 125°04'612.3
2018-Jun-13 15:59N 48°31' W 124°54'613.0
2018-Jun-13 15:30N 48°31' W 124°45'713.8
2018-Jun-13 15:00N 48°28' W 124°35'713.9
2018-Jun-13 14:30N 48°26' W 124°25'714.0
2018-Jun-13 14:00N 48°23' W 124°16'713.7
2018-Jun-13 13:30N 48°21' W 124°06'713.7
2018-Jun-13 13:00N 48°18' W 123°56'712.9
2018-Jun-13 12:28N 48°17' W 123°46'912.5
2018-Jun-13 11:47N 48°16' W 123°33'411.6
2018-Jun-13 11:27N 48°18' W 123°28'512.1
2018-Jun-13 11:00N 48°23' W 123°25'510.1
2018-Jun-13 10:31N 48°23' W 123°17'5 9.8
2018-Jun-13 10:00N 48°27' W 123°12'612.9
2018-Jun-13 09:30N 48°33' W 123°13'612.6
2018-Jun-13 09:00N 48°39' W 123°15'510.3
2018-Jun-13 08:31N 48°44' W 123°10'611.7
2018-Jun-13 08:01N 48°46' W 123°03'5 9.9
2018-Jun-13 07:29N 48°52' W 123°02'612.1
2018-Jun-13 07:00N 48°57' W 123°06'5 9.1
2018-Jun-13 06:31N 49°01' W 123°09'0 0.5
2018-Jun-13 06:00N 49°01' W 123°09'0 0.0
2018-Jun-13 05:30N 49°01' W 123°09'0 0.0
2018-Jun-13 02:08N 49°01' W 123°09'0 0.0
2018-Jun-13 01:44N 49°01' W 123°09'0 0.0
2018-Jun-13 01:29N 49°01' W 123°09'0 0.0
2018-Jun-13 00:56N 49°01' W 123°09'0 0.0
2018-Jun-13 00:29N 49°01' W 123°09'0 0.0
2018-Jun-12 23:53N 49°01' W 123°09'0 0.0
2018-Jun-12 21:35N 49°01' W 123°09'0 0.0
2018-Jun-12 21:17N 49°01' W 123°09'0 0.0
2018-Jun-12 14:44N 49°01' W 123°09'0 0.0
2018-Jun-12 14:23N 49°01' W 123°09'0 0.0
2018-Jun-12 13:47N 49°01' W 123°09'0 0.0
2018-Jun-12 13:26N 49°01' W 123°09'0 0.0
2018-Jun-12 12:59N 49°01' W 123°09'0 0.0
2018-Jun-12 12:29N 49°01' W 123°09'0 0.0
2018-Jun-12 11:59N 49°01' W 123°09'0 0.0
2018-Jun-12 11:29N 49°01' W 123°09'0 0.0
2018-Jun-12 10:59N 49°01' W 123°09'0 0.0
2018-Jun-12 10:29N 49°01' W 123°09'0 0.0
2018-Jun-12 09:59N 49°01' W 123°09'0 0.0
2018-Jun-12 09:29N 49°01' W 123°09'0 0.0
2018-Jun-12 08:59N 49°01' W 123°09'0 0.0
2018-Jun-12 08:29N 49°01' W 123°09'0 0.0
2018-Jun-12 07:59N 49°01' W 123°09'0 0.0
2018-Jun-12 07:29N 49°01' W 123°09'0 0.0
2018-Jun-12 05:47N 49°01' W 123°09'0 0.0
2018-Jun-12 05:17N 49°01' W 123°09'0 0.0
2018-Jun-12 04:47N 49°01' W 123°09'0 0.0
2018-Jun-12 04:26N 49°01' W 123°09'0 0.0
2018-Jun-12 03:11N 49°01' W 123°09'0 0.0
2018-Jun-12 02:59N 49°01' W 123°09'0 0.0
2018-Jun-12 02:29N 49°01' W 123°09'0 0.0
2018-Jun-12 01:59N 49°01' W 123°09'0 0.0
2018-Jun-12 01:29N 49°01' W 123°09'0 0.0
2018-Jun-12 00:53N 49°01' W 123°09'0 0.0
2018-Jun-12 00:02N 49°01' W 123°09'0 0.0
2018-Jun-11 23:53N 49°01' W 123°09'0 0.0
2018-Jun-11 23:05N 49°01' W 123°09'0 0.0
2018-Jun-11 22:47N 49°01' W 123°09'0 0.0
2018-Jun-11 19:50N 49°01' W 123°09'0 0.0
2018-Jun-11 19:20N 49°01' W 123°09'0 0.0
2018-Jun-11 17:41N 49°01' W 123°09'0 0.0
2018-Jun-11 17:29N 49°01' W 123°09'0 0.0
2018-Jun-11 15:05N 49°01' W 123°09'0 0.0
2018-Jun-11 14:59N 49°01' W 123°09'0 0.0
2018-Jun-11 14:05N 49°01' W 123°09'0 0.0
2018-Jun-11 13:59N 49°01' W 123°09'0 0.0
2018-Jun-11 13:29N 49°01' W 123°09'0 0.0
2018-Jun-11 12:59N 49°01' W 123°09'0 0.0
2018-Jun-11 12:29N 49°01' W 123°09'0 0.0
2018-Jun-11 11:59N 49°01' W 123°09'0 0.0
2018-Jun-11 11:29N 49°01' W 123°09'0 0.0
2018-Jun-11 10:59N 49°01' W 123°09'0 0.0
2018-Jun-11 10:29N 49°01' W 123°09'0 0.0
2018-Jun-11 09:59N 49°01' W 123°09'0 0.0
2018-Jun-11 09:29N 49°01' W 123°09'0 0.0
2018-Jun-11 08:59N 49°01' W 123°09'0 0.0
2018-Jun-11 08:29N 49°01' W 123°09'0 0.0
2018-Jun-11 07:56N 49°01' W 123°09'0 0.0
2018-Jun-11 07:29N 49°01' W 123°09'0 0.0
2018-Jun-11 06:59N 49°01' W 123°09'0 0.0
2018-Jun-11 06:29N 49°01' W 123°09'0 0.0
2018-Jun-11 05:59N 49°01' W 123°09'0 0.0
2018-Jun-10 23:38N 49°01' W 123°09'0 0.0
2018-Jun-10 23:29N 49°01' W 123°09'0 0.0
2018-Jun-10 22:59N 49°01' W 123°09'0 0.0
2018-Jun-10 22:29N 49°01' W 123°09'0 0.0
2018-Jun-10 21:59N 49°01' W 123°09'0 0.0
2018-Jun-10 21:29N 49°01' W 123°09'0 0.0
2018-Jun-10 20:59N 49°01' W 123°09'0 0.0
2018-Jun-10 20:29N 49°01' W 123°09'0 0.0
2018-Jun-10 19:59N 49°01' W 123°09'0 0.0
2018-Jun-10 19:29N 49°01' W 123°09'0 0.0
2018-Jun-10 15:11N 49°01' W 123°09'0 0.0
2018-Jun-10 14:59N 49°01' W 123°09'0 0.0
2018-Jun-10 14:29N 49°01' W 123°09'0 0.0
2018-Jun-10 13:29N 49°01' W 123°09'0 0.0
2018-Jun-10 12:59N 49°01' W 123°09'0 0.0
2018-Jun-10 12:29N 49°01' W 123°09'0 0.0
2018-Jun-10 11:59N 49°01' W 123°09'0 0.0
2018-Jun-10 11:29N 49°01' W 123°09'0 0.0
2018-Jun-10 10:59N 49°01' W 123°09'0 0.0
2018-Jun-10 10:29N 49°01' W 123°09'0 0.0
2018-Jun-10 09:59N 49°01' W 123°09'0 0.0
2018-Jun-10 09:29N 49°01' W 123°09'0 0.0
2018-Jun-10 08:59N 49°01' W 123°09'0 0.0
2018-Jun-10 06:41N 49°01' W 123°09'0 0.0
2018-Jun-10 04:20N 49°01' W 123°09'0 0.0
2018-Jun-10 03:56N 49°01' W 123°09'0 0.0
2018-Jun-10 02:44N 49°01' W 123°09'0 0.0
2018-Jun-10 02:20N 49°01' W 123°09'0 0.0
2018-Jun-10 01:59N 49°01' W 123°09'0 0.1
2018-Jun-10 01:30N 49°01' W 123°09'1 1.7
2018-Jun-10 01:00N 49°00' W 123°10'3 5.0
2018-Jun-10 00:30N 49°00' W 123°14'612.2
2018-Jun-10 00:00N 49°03' W 123°22'713.2
2018-Jun-09 23:30N 49°09' W 123°22'714.2
2018-Jun-09 23:00N 49°16' W 123°20'4 8.5
2018-Jun-09 22:30N 49°18' W 123°14'0 0.2
2018-Jun-09 21:59N 49°18' W 123°14'0 0.0
2018-Jun-09 21:26N 49°18' W 123°14'0 0.1
2018-Jun-09 20:59N 49°18' W 123°14'0 0.1
2018-Jun-09 20:29N 49°18' W 123°14'0 0.0
2018-Jun-09 19:59N 49°18' W 123°14'0 0.0
2018-Jun-09 19:29N 49°18' W 123°14'0 0.0
2018-Jun-09 18:59N 49°18' W 123°14'0 0.0
2018-Jun-09 18:29N 49°18' W 123°14'0 0.0
2018-Jun-09 17:59N 49°18' W 123°14'0 0.0
2018-Jun-09 17:29N 49°18' W 123°14'0 0.0
2018-Jun-09 16:59N 49°18' W 123°14'0 0.1
2018-Jun-09 16:26N 49°18' W 123°14'0 0.1
2018-Jun-09 15:59N 49°18' W 123°14'0 0.1
2018-Jun-09 15:29N 49°18' W 123°14'0 0.0
2018-Jun-09 14:29N 49°18' W 123°14'0 0.0
2018-Jun-09 13:59N 49°18' W 123°14'0 0.0
2018-Jun-09 13:26N 49°18' W 123°14'0 0.0
2018-Jun-09 12:59N 49°18' W 123°14'0 0.1
2018-Jun-09 12:29N 49°18' W 123°14'0 0.0
2018-Jun-09 11:59N 49°18' W 123°14'0 0.1
2018-Jun-09 11:29N 49°18' W 123°14'0 0.0
2018-Jun-09 10:56N 49°18' W 123°14'0 0.0
2018-Jun-09 10:29N 49°18' W 123°14'0 0.0
2018-Jun-09 09:50N 49°18' W 123°14'0 0.1
2018-Jun-09 09:29N 49°18' W 123°14'0 0.0
2018-Jun-09 08:53N 49°18' W 123°14'0 0.0
2018-Jun-09 08:23N 49°18' W 123°14'0 0.0
2018-Jun-09 07:53N 49°18' W 123°14'0 0.0
2018-Jun-09 07:26N 49°18' W 123°14'0 0.2
2018-Jun-09 06:47N 49°18' W 123°14'0 0.4
2018-Jun-09 06:29N 49°18' W 123°15'0 0.2
2018-Jun-09 05:59N 49°18' W 123°15'0 0.2
2018-Jun-09 05:29N 49°18' W 123°15'0 0.1
2018-Jun-09 04:59N 49°18' W 123°15'0 0.0
2018-Jun-09 04:17N 49°18' W 123°15'0 0.1
2018-Jun-09 03:47N 49°18' W 123°15'0 0.1
2018-Jun-09 03:29N 49°18' W 123°15'0 0.0
2018-Jun-09 02:59N 49°18' W 123°15'0 0.0
2018-Jun-09 02:29N 49°18' W 123°15'0 0.1
2018-Jun-09 01:59N 49°18' W 123°15'0 0.1
2018-Jun-09 01:14N 49°18' W 123°15'0 0.0
2018-Jun-09 00:59N 49°18' W 123°15'0 0.1
2018-Jun-09 00:26N 49°18' W 123°15'0 0.0
2018-Jun-08 23:59N 49°18' W 123°15'0 0.2
2018-Jun-08 23:26N 49°18' W 123°15'0 0.2
2018-Jun-08 22:53N 49°18' W 123°14'0 0.1
2018-Jun-08 22:26N 49°18' W 123°14'0 0.1
2018-Jun-08 21:56N 49°18' W 123°14'0 0.1
2018-Jun-08 21:26N 49°18' W 123°14'0 0.1
2018-Jun-08 20:53N 49°18' W 123°14'0 0.0
2018-Jun-08 20:29N 49°18' W 123°14'0 0.2
2018-Jun-08 20:00N 49°18' W 123°15'1 1.1
2018-Jun-08 19:30N 49°18' W 123°15'4 8.3
2018-Jun-08 19:00N 49°15' W 123°19'714.2
2018-Jun-08 18:30N 49°08' W 123°20'713.3
2018-Jun-08 18:00N 49°02' W 123°16'714.6
2018-Jun-08 17:30N 48°56' W 123°09'714.7
2018-Jun-08 17:00N 48°51' W 123°02'611.0
2018-Jun-08 16:29N 48°45' W 123°04'612.5
2018-Jun-08 16:00N 48°43' W 123°13'713.3
2018-Jun-08 15:31N 48°47' W 123°21'612.5
2018-Jun-08 15:00N 48°52' W 123°26'713.7
2018-Jun-08 14:30N 48°57' W 123°33'8 1.3
2018-Jun-08 08:19N 49°03' W 123°41'0 0.0
2018-Jun-08 04:52N 49°03' W 123°41'0 0.0
2018-Jun-08 01:28N 49°03' W 123°41'0 0.0
2018-Jun-07 23:07N 49°03' W 123°41'0 0.0
2018-Jun-07 22:58N 49°03' W 123°41'0 0.0
2018-Jun-07 21:01N 49°03' W 123°41'0 0.0
2018-Jun-07 15:49N 49°03' W 123°41'0 0.0
2018-Jun-07 14:37N 49°03' W 123°41'0 0.1
2018-Jun-07 14:07N 49°03' W 123°41'0 0.0
2018-Jun-06 16:37N 49°03' W 123°41'0 0.0
2018-Jun-06 14:49N 49°03' W 123°41'0 0.1
2018-Jun-06 14:16N 49°03' W 123°41'0 0.0
2018-Jun-06 11:49N 49°03' W 123°41'0 0.0
2018-Jun-06 11:19N 49°03' W 123°41'0 0.0
2018-Jun-06 07:22N 49°03' W 123°41'0 0.0
2018-Jun-06 06:37N 49°03' W 123°41'0 0.0
2018-Jun-06 06:28N 49°03' W 123°41'0 0.1
2018-Jun-06 05:16N 49°03' W 123°41'0 0.0
2018-Jun-06 01:07N 49°03' W 123°41'0 0.0
2018-Jun-06 00:52N 49°03' W 123°41'0 0.0
2018-Jun-06 00:22N 49°03' W 123°41'0 0.0
2018-Jun-05 23:58N 49°03' W 123°41'0 0.0
2018-Jun-05 21:19N 49°03' W 123°41'0 0.0
2018-Jun-05 20:49N 49°03' W 123°41'0 0.0
2018-Jun-05 20:16N 49°03' W 123°41'0 0.1
2018-Jun-05 19:52N 49°03' W 123°41'0 0.0
2018-Jun-05 19:28N 49°03' W 123°41'0 0.1
2018-Jun-05 18:43N 49°03' W 123°41'0 0.0
2018-Jun-05 18:22N 49°03' W 123°41'0 0.1
2018-Jun-05 17:55N 49°03' W 123°41'0 0.0
2018-Jun-05 17:28N 49°03' W 123°41'0 0.0
2018-Jun-05 16:58N 49°03' W 123°41'0 0.0
2018-Jun-05 16:28N 49°03' W 123°41'0 0.1
2018-Jun-05 15:58N 49°03' W 123°41'0 0.1
2018-Jun-05 15:28N 49°03' W 123°41'0 0.0
2018-Jun-05 14:58N 49°03' W 123°41'0 0.0
2018-Jun-05 14:28N 49°03' W 123°41'0 0.0
2018-Jun-05 13:58N 49°03' W 123°41'0 0.1
2018-Jun-05 13:28N 49°03' W 123°41'0 0.2
2018-Jun-05 12:58N 49°03' W 123°41'0 0.2
2018-Jun-05 12:28N 49°03' W 123°41'0 0.2
2018-Jun-05 11:55N 49°03' W 123°41'0 0.1
2018-Jun-05 11:28N 49°03' W 123°41'0 0.1
2018-Jun-05 10:58N 49°03' W 123°41'0 0.0
2018-Jun-05 10:28N 49°03' W 123°41'0 0.0
2018-Jun-05 09:58N 49°03' W 123°41'0 0.0
2018-Jun-05 09:25N 49°03' W 123°41'0 0.0
2018-Jun-05 08:55N 49°03' W 123°41'0 0.0
2018-Jun-05 08:28N 49°03' W 123°41'0 0.0
2018-Jun-05 07:58N 49°03' W 123°41'0 0.1
2018-Jun-05 07:25N 49°03' W 123°41'0 0.2
2018-Jun-05 06:58N 49°03' W 123°41'0 0.2
2018-Jun-05 06:25N 49°03' W 123°41'0 0.0
2018-Jun-05 05:58N 49°03' W 123°41'0 0.1
2018-Jun-05 05:28N 49°03' W 123°41'0 0.0
2018-Jun-05 04:55N 49°03' W 123°41'0 0.0
2018-Jun-05 04:28N 49°03' W 123°41'0 0.1
2018-Jun-05 03:55N 49°03' W 123°41'0 0.1
2018-Jun-05 03:25N 49°03' W 123°41'0 0.1
2018-Jun-05 02:58N 49°03' W 123°41'0 0.0
2018-Jun-05 02:28N 49°03' W 123°41'0 0.0
2018-Jun-05 01:58N 49°03' W 123°41'0 0.2
2018-Jun-05 01:28N 49°03' W 123°41'0 0.1
2018-Jun-05 00:58N 49°03' W 123°41'0 0.2
2018-Jun-05 00:28N 49°03' W 123°41'0 0.2
2018-Jun-04 23:55N 49°03' W 123°41'0 0.2
2018-Jun-04 23:28N 49°03' W 123°41'0 0.0
2018-Jun-04 22:58N 49°03' W 123°41'0 0.1
2018-Jun-04 22:28N 49°03' W 123°41'0 0.0
2018-Jun-04 21:58N 49°03' W 123°41'0 0.0
2018-Jun-04 21:28N 49°03' W 123°41'0 0.1
2018-Jun-04 20:58N 49°03' W 123°41'0 0.1
2018-Jun-04 20:25N 49°03' W 123°41'0 0.1
2018-Jun-04 19:58N 49°03' W 123°41'0 0.1
2018-Jun-04 19:28N 49°03' W 123°41'0 0.1
2018-Jun-04 18:55N 49°03' W 123°41'0 0.2
2018-Jun-04 18:28N 49°03' W 123°41'0 0.0
2018-Jun-04 17:58N 49°03' W 123°41'0 0.1
2018-Jun-04 17:28N 49°03' W 123°41'0 0.0
2018-Jun-04 16:58N 49°03' W 123°41'0 0.1
2018-Jun-04 16:28N 49°03' W 123°41'0 0.0
2018-Jun-04 15:58N 49°03' W 123°41'0 0.1
2018-Jun-04 15:28N 49°03' W 123°41'0 0.2
2018-Jun-04 14:58N 49°03' W 123°41'0 0.1
2018-Jun-04 14:28N 49°03' W 123°41'0 0.1
2018-Jun-04 13:55N 49°03' W 123°41'0 0.1
2018-Jun-04 13:28N 49°03' W 123°41'0 0.0
2018-Jun-04 12:58N 49°03' W 123°41'0 0.1
2018-Jun-04 12:25N 49°03' W 123°41'0 0.1
2018-Jun-04 11:58N 49°03' W 123°41'0 0.0
2018-Jun-04 11:28N 49°03' W 123°41'0 0.0
2018-Jun-04 10:58N 49°03' W 123°41'0 0.0
2018-Jun-04 10:25N 49°03' W 123°41'0 0.0
2018-Jun-04 09:55N 49°03' W 123°41'0 0.1
2018-Jun-04 09:28N 49°03' W 123°41'0 0.2
2018-Jun-04 08:58N 49°03' W 123°41'0 0.1
2018-Jun-04 08:01N 49°03' W 123°41'0 0.8
2018-Jun-04 07:58N 49°03' W 123°41'0 0.1
2018-Jun-04 07:28N 49°03' W 123°41'0 0.1
2018-Jun-04 06:58N 49°03' W 123°41'0 0.0
2018-Jun-04 06:19N 49°03' W 123°41'0 0.0
2018-Jun-04 05:49N 49°03' W 123°41'0 0.0
2018-Jun-04 05:28N 49°03' W 123°41'0 0.1
2018-Jun-04 04:46N 49°03' W 123°41'0 0.2
2018-Jun-04 04:22N 49°03' W 123°41'0 0.2
2018-Jun-04 03:58N 49°03' W 123°41'0 0.1
2018-Jun-04 03:28N 49°03' W 123°41'0 0.1
2018-Jun-04 02:58N 49°03' W 123°41'0 0.1
2018-Jun-04 02:28N 49°03' W 123°41'0 0.0
2018-Jun-04 01:55N 49°03' W 123°41'0 0.1
2018-Jun-04 01:28N 49°03' W 123°41'0 0.0
2018-Jun-04 00:58N 49°03' W 123°41'0 0.0
2018-Jun-04 00:28N 49°03' W 123°41'0 0.0
2018-Jun-03 23:55N 49°03' W 123°41'0 0.0
2018-Jun-03 23:28N 49°03' W 123°41'0 0.1
2018-Jun-03 22:55N 49°03' W 123°41'  
Track history (hours):
 
Tides and Currents Weather Stations Pressure Air Temp Water Temp Dewpoint Dewpoint Depression Visibility Wind Speed Wind Dir Waves Ship Positions

Hanjin Port Hedland

Last reported at 2018-Jun-13 22:42 UTC. Time now 2018-Jun-23 12:23 UTC.
Position N 48°32' W 126°41'.
Warning: this ship's position is 9 days out of date.

Length 292 m; draft 18.1 m.

Type: Cargo ship. MMSI: 372409000.

Date/timePositionNaut miles runAvg speedWind from/ knotsBaromVisibWave heightAir tempDewpointWater temp
2018-Jun-13 22:42N 48°32' W 126°41'2 9.6
2018-Jun-13 22:28N 48°32' W 126°38'4 9.3
2018-Jun-13 22:00N 48°31' W 126°31'5 9.5
2018-Jun-13 21:30N 48°31' W 126°24'5 9.7
2018-Jun-13 21:00N 48°31' W 126°17'5 9.9
2018-Jun-13 20:29N 48°31' W 126°09'510.1
2018-Jun-13 20:00N 48°31' W 126°02'510.0
2018-Jun-13 19:30N 48°31' W 125°54'5 9.9
2018-Jun-13 19:00N 48°31' W 125°47'510.1
2018-Jun-13 18:30N 48°31' W 125°39'510.8
2018-Jun-13 18:00N 48°31' W 125°31'611.2
2018-Jun-13 17:30N 48°31' W 125°23'612.5
2018-Jun-13 17:00N 48°31' W 125°13'612.3
2018-Jun-13 16:30N 48°32' W 125°04'612.3
2018-Jun-13 15:59N 48°31' W 124°54'613.0
2018-Jun-13 15:30N 48°31' W 124°45'713.8
2018-Jun-13 15:00N 48°28' W 124°35'713.9
2018-Jun-13 14:30N 48°26' W 124°25'714.0
2018-Jun-13 14:00N 48°23' W 124°16'713.7
2018-Jun-13 13:30N 48°21' W 124°06'713.7
2018-Jun-13 13:00N 48°18' W 123°56'712.9
2018-Jun-13 12:28N 48°17' W 123°46'912.5
2018-Jun-13 11:47N 48°16' W 123°33'411.6
2018-Jun-13 11:27N 48°18' W 123°28'512.1
2018-Jun-13 11:00N 48°23' W 123°25'510.1
2018-Jun-13 10:31N 48°23' W 123°17'5 9.8
2018-Jun-13 10:00N 48°27' W 123°12'612.9
2018-Jun-13 09:30N 48°33' W 123°13'612.6
2018-Jun-13 09:00N 48°39' W 123°15'510.3
2018-Jun-13 08:31N 48°44' W 123°10'611.7
2018-Jun-13 08:01N 48°46' W 123°03'5 9.9
2018-Jun-13 07:29N 48°52' W 123°02'612.1
2018-Jun-13 07:00N 48°57' W 123°06'5 9.1
2018-Jun-13 06:31N 49°01' W 123°09'0 0.5
2018-Jun-13 06:00N 49°01' W 123°09'0 0.0
2018-Jun-13 05:30N 49°01' W 123°09'0 0.0
2018-Jun-13 02:08N 49°01' W 123°09'0 0.0
2018-Jun-13 01:44N 49°01' W 123°09'0 0.0
2018-Jun-13 01:29N 49°01' W 123°09'0 0.0
2018-Jun-13 00:56N 49°01' W 123°09'0 0.0
2018-Jun-13 00:29N 49°01' W 123°09'0 0.0
2018-Jun-12 23:53N 49°01' W 123°09'0 0.0
2018-Jun-12 21:35N 49°01' W 123°09'0 0.0
2018-Jun-12 21:17N 49°01' W 123°09'0 0.0
2018-Jun-12 14:44N 49°01' W 123°09'0 0.0
2018-Jun-12 14:23N 49°01' W 123°09'0 0.0
2018-Jun-12 13:47N 49°01' W 123°09'0 0.0
2018-Jun-12 13:26N 49°01' W 123°09'0 0.0
2018-Jun-12 12:59N 49°01' W 123°09'0 0.0
2018-Jun-12 12:29N 49°01' W 123°09'0 0.0
2018-Jun-12 11:59N 49°01' W 123°09'0 0.0
2018-Jun-12 11:29N 49°01' W 123°09'0 0.0
2018-Jun-12 10:59N 49°01' W 123°09'0 0.0
2018-Jun-12 10:29N 49°01' W 123°09'0 0.0
2018-Jun-12 09:59N 49°01' W 123°09'0 0.0
2018-Jun-12 09:29N 49°01' W 123°09'0 0.0
2018-Jun-12 08:59N 49°01' W 123°09'0 0.0
2018-Jun-12 08:29N 49°01' W 123°09'0 0.0
2018-Jun-12 07:59N 49°01' W 123°09'0 0.0
2018-Jun-12 07:29N 49°01' W 123°09'0 0.0
2018-Jun-12 05:47N 49°01' W 123°09'0 0.0
2018-Jun-12 05:17N 49°01' W 123°09'0 0.0
2018-Jun-12 04:47N 49°01' W 123°09'0 0.0
2018-Jun-12 04:26N 49°01' W 123°09'0 0.0
2018-Jun-12 03:11N 49°01' W 123°09'0 0.0
2018-Jun-12 02:59N 49°01' W 123°09'0 0.0
2018-Jun-12 02:29N 49°01' W 123°09'0 0.0
2018-Jun-12 01:59N 49°01' W 123°09'0 0.0
2018-Jun-12 01:29N 49°01' W 123°09'0 0.0
2018-Jun-12 00:53N 49°01' W 123°09'0 0.0
2018-Jun-12 00:02N 49°01' W 123°09'0 0.0
2018-Jun-11 23:53N 49°01' W 123°09'0 0.0
2018-Jun-11 23:05N 49°01' W 123°09'0 0.0
2018-Jun-11 22:47N 49°01' W 123°09'0 0.0
2018-Jun-11 19:50N 49°01' W 123°09'0 0.0
2018-Jun-11 19:20N 49°01' W 123°09'0 0.0
2018-Jun-11 17:41N 49°01' W 123°09'0 0.0
2018-Jun-11 17:29N 49°01' W 123°09'0 0.0
2018-Jun-11 15:05N 49°01' W 123°09'0 0.0
2018-Jun-11 14:59N 49°01' W 123°09'0 0.0
2018-Jun-11 14:05N 49°01' W 123°09'0 0.0
2018-Jun-11 13:59N 49°01' W 123°09'0 0.0
2018-Jun-11 13:29N 49°01' W 123°09'0 0.0
2018-Jun-11 12:59N 49°01' W 123°09'0 0.0
2018-Jun-11 12:29N 49°01' W 123°09'0 0.0
2018-Jun-11 11:59N 49°01' W 123°09'0 0.0
2018-Jun-11 11:29N 49°01' W 123°09'0 0.0
2018-Jun-11 10:59N 49°01' W 123°09'0 0.0
2018-Jun-11 10:29N 49°01' W 123°09'0 0.0
2018-Jun-11 09:59N 49°01' W 123°09'0 0.0
2018-Jun-11 09:29N 49°01' W 123°09'0 0.0
2018-Jun-11 08:59N 49°01' W 123°09'0 0.0
2018-Jun-11 08:29N 49°01' W 123°09'0 0.0
2018-Jun-11 07:56N 49°01' W 123°09'0 0.0
2018-Jun-11 07:29N 49°01' W 123°09'0 0.0
2018-Jun-11 06:59N 49°01' W 123°09'0 0.0
2018-Jun-11 06:29N 49°01' W 123°09'0 0.0
2018-Jun-11 05:59N 49°01' W 123°09'0 0.0
2018-Jun-10 23:38N 49°01' W 123°09'0 0.0
2018-Jun-10 23:29N 49°01' W 123°09'0 0.0
2018-Jun-10 22:59N 49°01' W 123°09'0 0.0
2018-Jun-10 22:29N 49°01' W 123°09'0 0.0
2018-Jun-10 21:59N 49°01' W 123°09'0 0.0
2018-Jun-10 21:29N 49°01' W 123°09'0 0.0
2018-Jun-10 20:59N 49°01' W 123°09'0 0.0
2018-Jun-10 20:29N 49°01' W 123°09'0 0.0
2018-Jun-10 19:59N 49°01' W 123°09'0 0.0
2018-Jun-10 19:29N 49°01' W 123°09'0 0.0
2018-Jun-10 15:11N 49°01' W 123°09'0 0.0
2018-Jun-10 14:59N 49°01' W 123°09'0 0.0
2018-Jun-10 14:29N 49°01' W 123°09'0 0.0
2018-Jun-10 13:29N 49°01' W 123°09'0 0.0
2018-Jun-10 12:59N 49°01' W 123°09'0 0.0
2018-Jun-10 12:29N 49°01' W 123°09'0 0.0
2018-Jun-10 11:59N 49°01' W 123°09'0 0.0
2018-Jun-10 11:29N 49°01' W 123°09'0 0.0
2018-Jun-10 10:59N 49°01' W 123°09'0 0.0
2018-Jun-10 10:29N 49°01' W 123°09'0 0.0
2018-Jun-10 09:59N 49°01' W 123°09'0 0.0
2018-Jun-10 09:29N 49°01' W 123°09'0 0.0
2018-Jun-10 08:59N 49°01' W 123°09'0 0.0
2018-Jun-10 06:41N 49°01' W 123°09'0 0.0
2018-Jun-10 04:20N 49°01' W 123°09'0 0.0
2018-Jun-10 03:56N 49°01' W 123°09'0 0.0
2018-Jun-10 02:44N 49°01' W 123°09'0 0.0
2018-Jun-10 02:20N 49°01' W 123°09'0 0.0
2018-Jun-10 01:59N 49°01' W 123°09'0 0.1
2018-Jun-10 01:30N 49°01' W 123°09'1 1.7
2018-Jun-10 01:00N 49°00' W 123°10'3 5.0
2018-Jun-10 00:30N 49°00' W 123°14'612.2
2018-Jun-10 00:00N 49°03' W 123°22'713.2
2018-Jun-09 23:30N 49°09' W 123°22'714.2
2018-Jun-09 23:00N 49°16' W 123°20'4 8.5
2018-Jun-09 22:30N 49°18' W 123°14'0 0.2
2018-Jun-09 21:59N 49°18' W 123°14'0 0.0
2018-Jun-09 21:26N 49°18' W 123°14'0 0.1
2018-Jun-09 20:59N 49°18' W 123°14'0 0.1
2018-Jun-09 20:29N 49°18' W 123°14'0 0.0
2018-Jun-09 19:59N 49°18' W 123°14'0 0.0
2018-Jun-09 19:29N 49°18' W 123°14'0 0.0
2018-Jun-09 18:59N 49°18' W 123°14'0 0.0
2018-Jun-09 18:29N 49°18' W 123°14'0 0.0
2018-Jun-09 17:59N 49°18' W 123°14'0 0.0
2018-Jun-09 17:29N 49°18' W 123°14'0 0.0
2018-Jun-09 16:59N 49°18' W 123°14'0 0.1
2018-Jun-09 16:26N 49°18' W 123°14'0 0.1
2018-Jun-09 15:59N 49°18' W 123°14'0 0.1
2018-Jun-09 15:29N 49°18' W 123°14'0 0.0
2018-Jun-09 14:29N 49°18' W 123°14'0 0.0
2018-Jun-09 13:59N 49°18' W 123°14'0 0.0
2018-Jun-09 13:26N 49°18' W 123°14'0 0.0
2018-Jun-09 12:59N 49°18' W 123°14'0 0.1
2018-Jun-09 12:29N 49°18' W 123°14'0 0.0
2018-Jun-09 11:59N 49°18' W 123°14'0 0.1
2018-Jun-09 11:29N 49°18' W 123°14'0 0.0
2018-Jun-09 10:56N 49°18' W 123°14'0 0.0
2018-Jun-09 10:29N 49°18' W 123°14'0 0.0
2018-Jun-09 09:50N 49°18' W 123°14'0 0.1
2018-Jun-09 09:29N 49°18' W 123°14'0 0.0
2018-Jun-09 08:53N 49°18' W 123°14'0 0.0
2018-Jun-09 08:23N 49°18' W 123°14'0 0.0
2018-Jun-09 07:53N 49°18' W 123°14'0 0.0
2018-Jun-09 07:26N 49°18' W 123°14'0 0.2
2018-Jun-09 06:47N 49°18' W 123°14'0 0.4
2018-Jun-09 06:29N 49°18' W 123°15'0 0.2
2018-Jun-09 05:59N 49°18' W 123°15'0 0.2
2018-Jun-09 05:29N 49°18' W 123°15'0 0.1
2018-Jun-09 04:59N 49°18' W 123°15'0 0.0
2018-Jun-09 04:17N 49°18' W 123°15'0 0.1
2018-Jun-09 03:47N 49°18' W 123°15'0 0.1
2018-Jun-09 03:29N 49°18' W 123°15'0 0.0
2018-Jun-09 02:59N 49°18' W 123°15'0 0.0
2018-Jun-09 02:29N 49°18' W 123°15'0 0.1
2018-Jun-09 01:59N 49°18' W 123°15'0 0.1
2018-Jun-09 01:14N 49°18' W 123°15'0 0.0
2018-Jun-09 00:59N 49°18' W 123°15'0 0.1
2018-Jun-09 00:26N 49°18' W 123°15'0 0.0
2018-Jun-08 23:59N 49°18' W 123°15'0 0.2
2018-Jun-08 23:26N 49°18' W 123°15'0 0.2
2018-Jun-08 22:53N 49°18' W 123°14'0 0.1
2018-Jun-08 22:26N 49°18' W 123°14'0 0.1
2018-Jun-08 21:56N 49°18' W 123°14'0 0.1
2018-Jun-08 21:26N 49°18' W 123°14'0 0.1
2018-Jun-08 20:53N 49°18' W 123°14'0 0.0
2018-Jun-08 20:29N 49°18' W 123°14'0 0.2
2018-Jun-08 20:00N 49°18' W 123°15'1 1.1
2018-Jun-08 19:30N 49°18' W 123°15'4 8.3
2018-Jun-08 19:00N 49°15' W 123°19'714.2
2018-Jun-08 18:30N 49°08' W 123°20'713.3
2018-Jun-08 18:00N 49°02' W 123°16'714.6
2018-Jun-08 17:30N 48°56' W 123°09'714.7
2018-Jun-08 17:00N 48°51' W 123°02'611.0
2018-Jun-08 16:29N 48°45' W 123°04'612.5
2018-Jun-08 16:00N 48°43' W 123°13'713.3
2018-Jun-08 15:31N 48°47' W 123°21'612.5
2018-Jun-08 15:00N 48°52' W 123°26'713.7
2018-Jun-08 14:30N 48°57' W 123°33'8 1.3
2018-Jun-08 08:19N 49°03' W 123°41'0 0.0
2018-Jun-08 04:52N 49°03' W 123°41'0 0.0
2018-Jun-08 01:28N 49°03' W 123°41'0 0.0
2018-Jun-07 23:07N 49°03' W 123°41'0 0.0
2018-Jun-07 22:58N 49°03' W 123°41'0 0.0
2018-Jun-07 21:01N 49°03' W 123°41'0 0.0
2018-Jun-07 15:49N 49°03' W 123°41'0 0.0
2018-Jun-07 14:37N 49°03' W 123°41'0 0.1
2018-Jun-07 14:07N 49°03' W 123°41'0 0.0
2018-Jun-06 16:37N 49°03' W 123°41'0 0.0
2018-Jun-06 14:49N 49°03' W 123°41'0 0.1
2018-Jun-06 14:16N 49°03' W 123°41'0 0.0
2018-Jun-06 11:49N 49°03' W 123°41'0 0.0
2018-Jun-06 11:19N 49°03' W 123°41'0 0.0
2018-Jun-06 07:22N 49°03' W 123°41'0 0.0
2018-Jun-06 06:37N 49°03' W 123°41'0 0.0
2018-Jun-06 06:28N 49°03' W 123°41'0 0.1
2018-Jun-06 05:16N 49°03' W 123°41'0 0.0
2018-Jun-06 01:07N 49°03' W 123°41'0 0.0
2018-Jun-06 00:52N 49°03' W 123°41'0 0.0
2018-Jun-06 00:22N 49°03' W 123°41'0 0.0
2018-Jun-05 23:58N 49°03' W 123°41'0 0.0
2018-Jun-05 21:19N 49°03' W 123°41'0 0.0
2018-Jun-05 20:49N 49°03' W 123°41'0 0.0
2018-Jun-05 20:16N 49°03' W 123°41'0 0.1
2018-Jun-05 19:52N 49°03' W 123°41'0 0.0
2018-Jun-05 19:28N 49°03' W 123°41'0 0.1
2018-Jun-05 18:43N 49°03' W 123°41'0 0.0
2018-Jun-05 18:22N 49°03' W 123°41'0 0.1
2018-Jun-05 17:55N 49°03' W 123°41'0 0.0
2018-Jun-05 17:28N 49°03' W 123°41'0 0.0
2018-Jun-05 16:58N 49°03' W 123°41'0 0.0
2018-Jun-05 16:28N 49°03' W 123°41'0 0.1
2018-Jun-05 15:58N 49°03' W 123°41'0 0.1
2018-Jun-05 15:28N 49°03' W 123°41'0 0.0
2018-Jun-05 14:58N 49°03' W 123°41'0 0.0
2018-Jun-05 14:28N 49°03' W 123°41'0 0.0
2018-Jun-05 13:58N 49°03' W 123°41'0 0.1
2018-Jun-05 13:28N 49°03' W 123°41'0 0.2
2018-Jun-05 12:58N 49°03' W 123°41'0 0.2
2018-Jun-05 12:28N 49°03' W 123°41'0 0.2
2018-Jun-05 11:55N 49°03' W 123°41'0 0.1
2018-Jun-05 11:28N 49°03' W 123°41'0 0.1
2018-Jun-05 10:58N 49°03' W 123°41'0 0.0
2018-Jun-05 10:28N 49°03' W 123°41'0 0.0
2018-Jun-05 09:58N 49°03' W 123°41'0 0.0
2018-Jun-05 09:25N 49°03' W 123°41'0 0.0
2018-Jun-05 08:55N 49°03' W 123°41'0 0.0
2018-Jun-05 08:28N 49°03' W 123°41'0 0.0
2018-Jun-05 07:58N 49°03' W 123°41'0 0.1
2018-Jun-05 07:25N 49°03' W 123°41'0 0.2
2018-Jun-05 06:58N 49°03' W 123°41'0 0.2
2018-Jun-05 06:25N 49°03' W 123°41'0 0.0
2018-Jun-05 05:58N 49°03' W 123°41'0 0.1
2018-Jun-05 05:28N 49°03' W 123°41'0 0.0
2018-Jun-05 04:55N 49°03' W 123°41'0 0.0
2018-Jun-05 04:28N 49°03' W 123°41'0 0.1
2018-Jun-05 03:55N 49°03' W 123°41'0 0.1
2018-Jun-05 03:25N 49°03' W 123°41'0 0.1
2018-Jun-05 02:58N 49°03' W 123°41'0 0.0
2018-Jun-05 02:28N 49°03' W 123°41'0 0.0
2018-Jun-05 01:58N 49°03' W 123°41'0 0.2
2018-Jun-05 01:28N 49°03' W 123°41'0 0.1
2018-Jun-05 00:58N 49°03' W 123°41'0 0.2
2018-Jun-05 00:28N 49°03' W 123°41'0 0.2
2018-Jun-04 23:55N 49°03' W 123°41'0 0.2
2018-Jun-04 23:28N 49°03' W 123°41'0 0.0
2018-Jun-04 22:58N 49°03' W 123°41'0 0.1
2018-Jun-04 22:28N 49°03' W 123°41'0 0.0
2018-Jun-04 21:58N 49°03' W 123°41'0 0.0
2018-Jun-04 21:28N 49°03' W 123°41'0 0.1
2018-Jun-04 20:58N 49°03' W 123°41'0 0.1
2018-Jun-04 20:25N 49°03' W 123°41'0 0.1
2018-Jun-04 19:58N 49°03' W 123°41'0 0.1
2018-Jun-04 19:28N 49°03' W 123°41'0 0.1
2018-Jun-04 18:55N 49°03' W 123°41'0 0.2
2018-Jun-04 18:28N 49°03' W 123°41'0 0.0
2018-Jun-04 17:58N 49°03' W 123°41'0 0.1
2018-Jun-04 17:28N 49°03' W 123°41'0 0.0
2018-Jun-04 16:58N 49°03' W 123°41'0 0.1
2018-Jun-04 16:28N 49°03' W 123°41'0 0.0
2018-Jun-04 15:58N 49°03' W 123°41'0 0.1
2018-Jun-04 15:28N 49°03' W 123°41'0 0.2
2018-Jun-04 14:58N 49°03' W 123°41'0 0.1
2018-Jun-04 14:28N 49°03' W 123°41'0 0.1
2018-Jun-04 13:55N 49°03' W 123°41'0 0.1
2018-Jun-04 13:28N 49°03' W 123°41'0 0.0
2018-Jun-04 12:58N 49°03' W 123°41'0 0.1
2018-Jun-04 12:25N 49°03' W 123°41'0 0.1
2018-Jun-04 11:58N 49°03' W 123°41'0 0.0
2018-Jun-04 11:28N 49°03' W 123°41'0 0.0
2018-Jun-04 10:58N 49°03' W 123°41'0 0.0
2018-Jun-04 10:25N 49°03' W 123°41'0 0.0
2018-Jun-04 09:55N 49°03' W 123°41'0 0.1
2018-Jun-04 09:28N 49°03' W 123°41'0 0.2
2018-Jun-04 08:58N 49°03' W 123°41'0 0.1
2018-Jun-04 08:01N 49°03' W 123°41'0 0.8
2018-Jun-04 07:58N 49°03' W 123°41'0 0.1
2018-Jun-04 07:28N 49°03' W 123°41'0 0.1
2018-Jun-04 06:58N 49°03' W 123°41'0 0.0
2018-Jun-04 06:19N 49°03' W 123°41'0 0.0
2018-Jun-04 05:49N 49°03' W 123°41'0 0.0
2018-Jun-04 05:28N 49°03' W 123°41'0 0.1
2018-Jun-04 04:46N 49°03' W 123°41'0 0.2
2018-Jun-04 04:22N 49°03' W 123°41'0 0.2
2018-Jun-04 03:58N 49°03' W 123°41'0 0.1
2018-Jun-04 03:28N 49°03' W 123°41'0 0.1
2018-Jun-04 02:58N 49°03' W 123°41'0 0.1
2018-Jun-04 02:28N 49°03' W 123°41'0 0.0
2018-Jun-04 01:55N 49°03' W 123°41'0 0.1
2018-Jun-04 01:28N 49°03' W 123°41'0 0.0
2018-Jun-04 00:58N 49°03' W 123°41'0 0.0
2018-Jun-04 00:28N 49°03' W 123°41'0 0.0
2018-Jun-03 23:55N 49°03' W 123°41'0 0.0
2018-Jun-03 23:28N 49°03' W 123°41'0 0.1
2018-Jun-03 22:55N 49°03' W 123°41'  

Dump ship's entire track history